Terminal Aerodrome Forecast
Issued by NWS Chicago, IL

Home | Current Version | Previous Version | Graphics & Text | Print | Product List | Glossary On
Versions: 1 2 3 4 5 6 7 8 9 10 11 12 13 14 15 16 17 18 19 20 21 22 23 24 25 26 27 28 29 30
720
FTUS43 KLOT 280900 AAB
TAFRFD
TAF AMD
KRFD 280900Z 2809/2906 03004KT 4SM BR SCT007 OVC012
     FM281000 04005KT 4SM BR OVC007
     FM281600 03009KT P6SM OVC018
     FM282200 06009KT P6SM FEW025 SCT035 BKN200=

USA.gov is the U.S. government's official web portal to all federal, state and local government web resources and services.